createdAt,value
2022-12-11T12:49:52.791Z,2.4
2022-12-11T13:05:58.914Z,18.6
2022-12-11T13:11:45.387Z,18.8
2022-12-11T13:20:10.977Z,21.0
2022-12-11T13:25:02.307Z,20.7
2022-12-11T13:30:05.931Z,20.7
2022-12-11T13:35:00.773Z,20.8
2022-12-11T13:40:04.614Z,20.8
2022-12-11T13:45:01.436Z,20.8
2022-12-11T13:50:00.809Z,20.5
2022-12-11T13:55:01.522Z,20.4
2022-12-11T14:00:01.231Z,19.8
2022-12-11T14:05:03.567Z,25.4
2022-12-11T14:10:04.670Z,24.2
2022-12-11T14:15:02.233Z,23.9
2022-12-11T14:20:03.613Z,23.4
2022-12-11T14:25:15.925Z,22.9
2022-12-11T14:30:10.088Z,22.0
2022-12-11T14:35:03.920Z,21.6
2022-12-11T14:40:00.836Z,20.7
2022-12-11T15:05:18.181Z,15.6
2022-12-11T15:11:06.013Z,14.1
2022-12-11T15:16:13.513Z,15.3
2022-12-11T15:21:04.220Z,15.6
2022-12-11T15:26:02.122Z,16.9
2022-12-11T15:31:04.426Z,17.4
2022-12-11T15:36:09.469Z,18.7
2022-12-11T15:41:21.233Z,19.4
2022-12-11T15:46:04.862Z,20.2
2022-12-11T15:51:01.681Z,19.8
2022-12-11T15:56:07.823Z,20.4
2022-12-11T16:01:01.644Z,20.4
2022-12-11T16:06:01.245Z,20.3
2022-12-11T16:11:01.722Z,20.0
2022-12-11T16:16:02.073Z,23.2
2022-12-11T16:21:01.367Z,23.0
2022-12-11T16:26:01.244Z,23.2
2022-12-11T16:31:01.478Z,22.7
2022-12-11T16:36:01.281Z,23.3
2022-12-11T16:41:08.165Z,20.0
2022-12-11T16:46:01.500Z,19.9
2022-12-11T16:51:01.389Z,20.1
2022-12-11T17:01:01.442Z,20.6
2022-12-11T17:06:04.636Z,21.5
2022-12-11T17:11:01.254Z,23.4
2022-12-11T17:16:01.536Z,23.9
2022-12-11T17:21:01.437Z,25.8
2022-12-11T17:26:01.258Z,24.0
2022-12-11T17:31:03.823Z,23.6
2022-12-11T17:36:01.325Z,21.7
2022-12-11T17:41:01.372Z,21.6
2022-12-11T17:47:11.438Z,19.6
2022-12-11T17:52:01.253Z,21.5
2022-12-11T17:57:07.002Z,20.9
2022-12-11T18:02:08.702Z,21.2
2022-12-11T18:07:07.874Z,22.0
2022-12-11T18:12:01.258Z,23.8
2022-12-11T18:17:01.361Z,25.0
2022-12-11T18:22:01.897Z,24.4
2022-12-11T18:27:01.254Z,24.6
2022-12-11T18:32:01.593Z,22.4
2022-12-11T18:37:01.275Z,20.9
2022-12-11T18:47:07.263Z,20.6
2022-12-11T18:52:01.380Z,20.3
2022-12-11T18:57:01.292Z,21.3
2022-12-11T19:02:02.227Z,22.0
2022-12-11T19:07:01.369Z,22.0
2022-12-11T19:12:01.455Z,21.9
2022-12-11T19:17:01.681Z,22.2
2022-12-11T19:22:01.369Z,22.5
2022-12-11T19:27:01.343Z,21.5
2022-12-11T19:32:07.354Z,21.3
2022-12-11T19:37:01.339Z,20.7
2022-12-11T19:42:01.265Z,19.6
2022-12-11T19:47:02.148Z,19.0
2022-12-11T19:52:01.302Z,19.6
2022-12-11T19:57:01.278Z,20.3
2022-12-11T20:02:01.551Z,20.4
2022-12-11T20:07:01.793Z,20.9
2022-12-11T20:12:01.528Z,21.4
2022-12-11T20:17:15.283Z,21.0
2022-12-11T20:22:01.352Z,20.5
2022-12-11T20:27:01.264Z,20.2
2022-12-11T20:32:07.970Z,20.6
2022-12-11T20:37:11.373Z,20.1
2022-12-11T20:47:01.561Z,16.9
2022-12-11T20:52:01.302Z,17.4
2022-12-11T20:57:01.349Z,17.1
2022-12-11T21:02:01.548Z,16.9
2022-12-11T21:07:01.762Z,17.7
2022-12-11T21:12:01.353Z,20.1
2022-12-11T21:17:06.692Z,19.7
2022-12-11T21:22:01.323Z,18.8
2022-12-11T21:27:01.277Z,18.8
2022-12-11T21:32:01.672Z,18.3
2022-12-11T21:37:01.316Z,17.8
2022-12-11T21:42:01.935Z,18.4
2022-12-11T21:48:01.330Z,19.6
2022-12-11T21:58:01.317Z,19.6
2022-12-11T22:03:01.485Z,20.7
2022-12-11T22:08:03.489Z,21.1
2022-12-11T22:13:01.308Z,20.0
2022-12-11T22:18:01.255Z,19.3
2022-12-11T22:23:01.374Z,19.7
2022-12-11T22:28:01.293Z,19.0
2022-12-11T22:33:01.388Z,18.1
2022-12-11T22:38:01.287Z,18.4
2022-12-11T22:43:07.355Z,19.1
2022-12-11T22:48:01.429Z,18.4
2022-12-11T22:53:01.861Z,17.8
2022-12-11T22:58:01.291Z,17.8
2022-12-11T23:03:01.705Z,18.4
2022-12-11T23:08:01.633Z,22.0
2022-12-11T23:13:00.813Z,19.7
2022-12-11T23:18:00.833Z,19.9
2022-12-11T23:23:00.870Z,20.0
2022-12-11T23:28:24.652Z,18.9
2022-12-11T23:33:01.016Z,17.2
2022-12-11T23:38:00.910Z,17.6
2022-12-11T23:43:01.015Z,17.0
2022-12-11T23:48:00.806Z,17.1
2022-12-11T23:53:00.896Z,16.8
2022-12-11T23:58:06.819Z,16.7
